Home   Weather   Wingsbach   Past weeks
Flag for Germany

Past Weather in Wingsbach, Hesse, Germany — March 2021

Currently: 59 °F. Passing clouds. (Weather station: Frankfurt-M-Flughafen Airport, Germany). See more current weather

March 2021 Weather in Wingsbach — Graph

°F

High & Low Weather Summary for March 2021

 TemperatureHumidityPressure
High77 °F (Mar 31, 4:20 pm)100% (Mar 17, 6:50 am)30.54 "Hg (Mar 17, 6:50 am)
Low25 °F (Mar 7, 6:50 am)22% (Mar 30, 6:20 pm)29.47 "Hg (Mar 13, 10:50 am)
Average44 °F67%30.17 "Hg
* Reported Mar 1 12:20 am — Mar 31 11:50 pm, Wingsbach. Weather by CustomWeather, © 2024

Note: Actual official high and low records may vary slightly from our data, if they occured in-between our weather recording intervals... More about our weather records

Wingsbach Weather History for March 1, 2021

Scroll right to see more
 ConditionsComfort  
Time TempWeatherWind HumidityBarometerVisibility
12:20 am
Mon, Mar 1
39 °FPassing clouds.6 mph87%30.51 "HgN/A
12:50 am36 °FClear.6 mph87%30.51 "Hg10 mi
1:20 am36 °FClear.5 mph87%30.51 "Hg10 mi
1:50 am36 °FClear.3 mph87%30.51 "Hg10 mi
2:20 am34 °FClear.6 mph93%30.51 "Hg10 mi
2:50 am34 °FClear.6 mph87%30.51 "Hg10 mi
3:20 am34 °FClear.6 mph87%30.51 "Hg10 mi
3:50 am32 °FClear.8 mph93%30.51 "Hg10 mi
4:20 am32 °FClear.7 mph93%30.51 "Hg10 mi
4:50 am32 °FClear.6 mph87%30.51 "Hg10 mi
5:20 am32 °FClear.7 mph87%30.51 "Hg10 mi
5:50 am32 °FClear.7 mph93%30.51 "Hg10 mi
6:20 am34 °FClear.7 mph87%30.51 "Hg10 mi
6:50 am32 °FClear.6 mph93%30.51 "Hg10 mi
7:20 am32 °FSunny.7 mph93%30.51 "Hg10 mi
7:50 am36 °FSunny.8 mph87%30.51 "Hg10 mi
8:20 am37 °FSunny.9 mph81%30.51 "Hg10 mi
8:50 am37 °FSunny.10 mph87%30.54 "Hg10 mi
9:20 am39 °FSunny.10 mph81%30.54 "Hg10 mi
9:50 am41 °FSunny.9 mph76%30.54 "Hg10 mi
10:20 am43 °FSunny.13 mph71%30.54 "Hg10 mi
10:50 am45 °FSunny.10 mph66%30.54 "Hg10 mi
11:20 am46 °FSunny.10 mph62%30.51 "Hg10 mi
11:50 am48 °FPassing clouds.10 mph58%30.51 "HgN/A
12:20 pm48 °FSunny.10 mph58%30.51 "Hg10 mi
12:50 pm50 °FPassing clouds.8 mph58%30.51 "HgN/A
1:20 pm52 °FPassing clouds.10 mph54%30.48 "HgN/A
1:50 pm54 °FPassing clouds.10 mph51%30.48 "HgN/A
2:20 pm54 °FPassing clouds.9 mph51%30.48 "HgN/A
2:50 pm54 °FPassing clouds.9 mph51%30.45 "HgN/A
3:20 pm55 °FPassing clouds.8 mph47%30.45 "HgN/A
3:50 pm55 °FPassing clouds.8 mph51%30.45 "HgN/A
4:20 pm55 °FSunny.10 mph51%30.45 "Hg10 mi
4:50 pm54 °FSunny.10 mph54%30.45 "Hg10 mi
5:20 pm54 °FSunny.10 mph54%30.42 "Hg10 mi
5:50 pm52 °FSunny.9 mph58%30.42 "Hg10 mi
6:20 pm48 °FClear.9 mph66%30.45 "Hg10 mi
6:50 pm46 °FClear.10 mph71%30.45 "Hg10 mi
7:20 pm48 °FClear.8 mph66%30.45 "Hg10 mi
7:50 pm46 °FClear.9 mph71%30.45 "Hg10 mi
8:20 pm46 °FClear.12 mph71%30.45 "Hg10 mi
8:50 pm46 °FClear.13 mph71%30.45 "Hg10 mi
9:20 pm46 °FClear.9 mph71%30.45 "Hg10 mi
9:50 pm46 °FClear.10 mph71%30.45 "Hg10 mi
10:20 pm45 °FClear.8 mph76%30.45 "Hg10 mi
10:50 pm45 °FClear.8 mph76%30.45 "Hg10 mi
11:20 pm45 °FClear.7 mph76%30.45 "Hg10 mi
11:50 pm39 °FClear.5 mph81%30.45 "Hg10 mi
Weather by CustomWeather, © 2024

See weather overview